sensor_id;sensor_type;location;lat;lon;timestamp;temperature;humidity
23471;DHT22;11908;50.806;4.424;2023-02-23T00:02:18;9.60;99.90
23471;DHT22;11908;50.806;4.424;2023-02-23T00:04:44;9.50;99.90
23471;DHT22;11908;50.806;4.424;2023-02-23T00:07:09;9.40;99.90
23471;DHT22;11908;50.806;4.424;2023-02-23T00:09:35;9.40;99.90
23471;DHT22;11908;50.806;4.424;2023-02-23T00:12:02;9.40;99.90
23471;DHT22;11908;50.806;4.424;2023-02-23T00:14:33;9.50;99.90
23471;DHT22;11908;50.806;4.424;2023-02-23T00:17:00;9.60;99.90
23471;DHT22;11908;50.806;4.424;2023-02-23T00:19:26;9.60;99.90
23471;DHT22;11908;50.806;4.424;2023-02-23T00:21:52;9.60;99.90
23471;DHT22;11908;50.806;4.424;2023-02-23T00:24:18;9.60;99.90
23471;DHT22;11908;50.806;4.424;2023-02-23T00:26:45;9.60;99.90
23471;DHT22;11908;50.806;4.424;2023-02-23T00:29:17;9.70;99.90
23471;DHT22;11908;50.806;4.424;2023-02-23T00:31:44;9.70;99.90
23471;DHT22;11908;50.806;4.424;2023-02-23T00:34:11;9.70;99.90
23471;DHT22;11908;50.806;4.424;2023-02-23T00:36:37;9.60;99.90
23471;DHT22;11908;50.806;4.424;2023-02-23T00:39:06;9.60;99.90
23471;DHT22;11908;50.806;4.424;2023-02-23T00:41:42;9.50;99.90
23471;DHT22;11908;50.806;4.424;2023-02-23T00:44:08;9.50;99.90
23471;DHT22;11908;50.806;4.424;2023-02-23T00:46:34;9.60;99.90
23471;DHT22;11908;50.806;4.424;2023-02-23T00:48:59;9.70;99.90
23471;DHT22;11908;50.806;4.424;2023-02-23T00:51:26;9.70;99.90
23471;DHT22;11908;50.806;4.424;2023-02-23T00:53:56;9.70;99.90
23471;DHT22;11908;50.806;4.424;2023-02-23T00:56:22;9.70;99.90
23471;DHT22;11908;50.806;4.424;2023-02-23T00:58:47;9.70;99.90
23471;DHT22;11908;50.806;4.424;2023-02-23T01:01:14;9.60;99.90
23471;DHT22;11908;50.806;4.424;2023-02-23T01:03:41;9.60;99.90
23471;DHT22;11908;50.806;4.424;2023-02-23T01:06:09;9.60;99.90
23471;DHT22;11908;50.806;4.424;2023-02-23T01:08:41;9.60;99.90
23471;DHT22;11908;50.806;4.424;2023-02-23T01:11:08;9.50;99.90
23471;DHT22;11908;50.806;4.424;2023-02-23T01:13:35;9.60;99.90
23471;DHT22;11908;50.806;4.424;2023-02-23T01:16:05;9.50;99.90
23471;DHT22;11908;50.806;4.424;2023-02-23T01:18:32;9.50;99.90
23471;DHT22;11908;50.806;4.424;2023-02-23T01:21:02;9.50;99.90
23471;DHT22;11908;50.806;4.424;2023-02-23T01:23:30;9.50;99.90
23471;DHT22;11908;50.806;4.424;2023-02-23T01:25:56;9.50;99.90
23471;DHT22;11908;50.806;4.424;2023-02-23T01:28:22;9.50;99.90
23471;DHT22;11908;50.806;4.424;2023-02-23T01:30:48;9.40;99.90
23471;DHT22;11908;50.806;4.424;2023-02-23T01:33:14;9.40;99.90
23471;DHT22;11908;50.806;4.424;2023-02-23T01:35:39;9.40;99.90
23471;DHT22;11908;50.806;4.424;2023-02-23T01:38:05;9.40;99.90
23471;DHT22;11908;50.806;4.424;2023-02-23T01:40:31;9.50;99.90
23471;DHT22;11908;50.806;4.424;2023-02-23T01:43:18;9.50;99.90
23471;DHT22;11908;50.806;4.424;2023-02-23T01:45:54;9.50;99.90
23471;DHT22;11908;50.806;4.424;2023-02-23T01:48:26;9.50;99.90
23471;DHT22;11908;50.806;4.424;2023-02-23T01:51:06;9.50;99.90
23471;DHT22;11908;50.806;4.424;2023-02-23T01:53:42;9.50;99.90
23471;DHT22;11908;50.806;4.424;2023-02-23T01:56:15;9.60;99.90
23471;DHT22;11908;50.806;4.424;2023-02-23T01:58:45;9.60;99.90
23471;DHT22;11908;50.806;4.424;2023-02-23T02:01:12;9.60;99.90
23471;DHT22;11908;50.806;4.424;2023-02-23T02:03:45;9.60;99.90
23471;DHT22;11908;50.806;4.424;2023-02-23T02:06:13;9.60;99.90
23471;DHT22;11908;50.806;4.424;2023-02-23T02:08:45;9.60;99.90
23471;DHT22;11908;50.806;4.424;2023-02-23T02:11:17;9.60;99.90
23471;DHT22;11908;50.806;4.424;2023-02-23T02:14:15;9.60;99.90
23471;DHT22;11908;50.806;4.424;2023-02-23T02:25:27;9.70;99.90
23471;DHT22;11908;50.806;4.424;2023-02-23T02:34:20;9.70;99.90
23471;DHT22;11908;50.806;4.424;2023-02-23T02:43:02;9.60;99.90
23471;DHT22;11908;50.806;4.424;2023-02-23T02:56:34;9.60;99.90
23471;DHT22;11908;50.806;4.424;2023-02-23T02:59:07;9.70;99.90
23471;DHT22;11908;50.806;4.424;2023-02-23T03:01:53;9.70;99.90
23471;DHT22;11908;50.806;4.424;2023-02-23T03:04:37;9.80;99.90
23471;DHT22;11908;50.806;4.424;2023-02-23T03:07:44;9.80;99.90
23471;DHT22;11908;50.806;4.424;2023-02-23T03:10:37;9.80;99.90
23471;DHT22;11908;50.806;4.424;2023-02-23T03:13:45;9.80;99.90
23471;DHT22;11908;50.806;4.424;2023-02-23T03:22:38;9.80;99.90
23471;DHT22;11908;50.806;4.424;2023-02-23T03:25:31;9.80;99.90
23471;DHT22;11908;50.806;4.424;2023-02-23T03:28:24;9.80;99.90
23471;DHT22;11908;50.806;4.424;2023-02-23T03:31:26;9.80;99.90
23471;DHT22;11908;50.806;4.424;2023-02-23T03:34:39;9.90;99.90
23471;DHT22;11908;50.806;4.424;2023-02-23T03:37:34;9.80;99.90
23471;DHT22;11908;50.806;4.424;2023-02-23T03:40:27;9.80;99.90
23471;DHT22;11908;50.806;4.424;2023-02-23T03:43:16;9.80;99.90
23471;DHT22;11908;50.806;4.424;2023-02-23T03:46:03;9.90;99.90
23471;DHT22;11908;50.806;4.424;2023-02-23T03:48:52;9.80;99.90
23471;DHT22;11908;50.806;4.424;2023-02-23T03:51:40;9.80;99.90
23471;DHT22;11908;50.806;4.424;2023-02-23T03:54:38;9.90;99.90
23471;DHT22;11908;50.806;4.424;2023-02-23T03:57:26;10.00;99.90
23471;DHT22;11908;50.806;4.424;2023-02-23T04:00:18;10.00;99.90
23471;DHT22;11908;50.806;4.424;2023-02-23T04:03:08;9.90;99.90
23471;DHT22;11908;50.806;4.424;2023-02-23T04:05:55;9.90;99.90
23471;DHT22;11908;50.806;4.424;2023-02-23T04:08:40;9.90;99.90
23471;DHT22;11908;50.806;4.424;2023-02-23T04:11:44;9.90;99.90
23471;DHT22;11908;50.806;4.424;2023-02-23T04:14:38;9.90;99.90
23471;DHT22;11908;50.806;4.424;2023-02-23T04:17:07;9.80;99.90
23471;DHT22;11908;50.806;4.424;2023-02-23T04:19:33;9.80;99.90
23471;DHT22;11908;50.806;4.424;2023-02-23T04:21:59;9.70;99.90
23471;DHT22;11908;50.806;4.424;2023-02-23T04:24:25;9.60;99.90
23471;DHT22;11908;50.806;4.424;2023-02-23T04:26:50;9.60;99.90
23471;DHT22;11908;50.806;4.424;2023-02-23T04:29:16;9.60;99.90
23471;DHT22;11908;50.806;4.424;2023-02-23T04:31:42;9.60;99.90
23471;DHT22;11908;50.806;4.424;2023-02-23T04:34:08;9.60;99.90
23471;DHT22;11908;50.806;4.424;2023-02-23T04:36:33;9.50;99.90
23471;DHT22;11908;50.806;4.424;2023-02-23T04:38:59;9.50;99.90
23471;DHT22;11908;50.806;4.424;2023-02-23T04:41:25;9.40;99.90
23471;DHT22;11908;50.806;4.424;2023-02-23T04:43:50;9.30;99.90
23471;DHT22;11908;50.806;4.424;2023-02-23T04:46:16;9.40;99.90
23471;DHT22;11908;50.806;4.424;2023-02-23T04:48:41;9.30;99.90
23471;DHT22;11908;50.806;4.424;2023-02-23T04:51:07;9.30;99.90
23471;DHT22;11908;50.806;4.424;2023-02-23T04:53:33;9.40;99.90
23471;DHT22;11908;50.806;4.424;2023-02-23T04:55:58;9.40;99.90
23471;DHT22;11908;50.806;4.424;2023-02-23T04:58:24;9.40;99.90
23471;DHT22;11908;50.806;4.424;2023-02-23T05:00:50;9.40;99.90
23471;DHT22;11908;50.806;4.424;2023-02-23T05:03:15;9.40;99.90
23471;DHT22;11908;50.806;4.424;2023-02-23T05:05:44;9.40;99.90
23471;DHT22;11908;50.806;4.424;2023-02-23T05:08:10;9.40;99.90
23471;DHT22;11908;50.806;4.424;2023-02-23T05:10:35;9.30;99.90
23471;DHT22;11908;50.806;4.424;2023-02-23T05:13:01;9.30;99.90
23471;DHT22;11908;50.806;4.424;2023-02-23T05:15:27;9.30;99.90
23471;DHT22;11908;50.806;4.424;2023-02-23T05:17:53;9.20;99.90
23471;DHT22;11908;50.806;4.424;2023-02-23T05:20:20;9.10;99.90
23471;DHT22;11908;50.806;4.424;2023-02-23T05:22:46;9.20;99.90
23471;DHT22;11908;50.806;4.424;2023-02-23T05:25:13;9.10;99.90
23471;DHT22;11908;50.806;4.424;2023-02-23T05:27:38;9.20;99.90
23471;DHT22;11908;50.806;4.424;2023-02-23T05:30:05;9.20;99.90
23471;DHT22;11908;50.806;4.424;2023-02-23T05:32:32;9.10;99.90
23471;DHT22;11908;50.806;4.424;2023-02-23T05:34:59;9.20;99.90
23471;DHT22;11908;50.806;4.424;2023-02-23T05:37:25;9.10;99.90
23471;DHT22;11908;50.806;4.424;2023-02-23T05:39:51;9.10;99.90
23471;DHT22;11908;50.806;4.424;2023-02-23T05:42:16;9.10;99.90
23471;DHT22;11908;50.806;4.424;2023-02-23T05:44:42;9.30;99.90
23471;DHT22;11908;50.806;4.424;2023-02-23T05:47:08;9.30;99.90
23471;DHT22;11908;50.806;4.424;2023-02-23T05:49:35;9.30;99.90
23471;DHT22;11908;50.806;4.424;2023-02-23T05:52:01;9.40;99.90
23471;DHT22;11908;50.806;4.424;2023-02-23T05:54:26;9.40;99.90
23471;DHT22;11908;50.806;4.424;2023-02-23T05:56:52;9.40;99.90
23471;DHT22;11908;50.806;4.424;2023-02-23T05:59:17;9.50;99.90
23471;DHT22;11908;50.806;4.424;2023-02-23T06:01:43;9.40;99.90
23471;DHT22;11908;50.806;4.424;2023-02-23T06:04:09;9.40;99.90
23471;DHT22;11908;50.806;4.424;2023-02-23T06:06:35;9.40;99.90
23471;DHT22;11908;50.806;4.424;2023-02-23T06:09:01;9.40;99.90
23471;DHT22;11908;50.806;4.424;2023-02-23T06:11:28;9.40;99.90
23471;DHT22;11908;50.806;4.424;2023-02-23T06:13:54;9.40;99.90
23471;DHT22;11908;50.806;4.424;2023-02-23T06:16:19;9.30;99.90
23471;DHT22;11908;50.806;4.424;2023-02-23T06:18:45;9.40;99.90
23471;DHT22;11908;50.806;4.424;2023-02-23T06:21:11;9.40;99.90
23471;DHT22;11908;50.806;4.424;2023-02-23T06:23:37;9.40;99.90
23471;DHT22;11908;50.806;4.424;2023-02-23T06:26:03;9.30;99.90
23471;DHT22;11908;50.806;4.424;2023-02-23T06:28:29;9.20;99.90
23471;DHT22;11908;50.806;4.424;2023-02-23T06:30:55;9.20;99.90
23471;DHT22;11908;50.806;4.424;2023-02-23T06:33:21;9.10;99.90
23471;DHT22;11908;50.806;4.424;2023-02-23T06:35:47;8.90;99.90
23471;DHT22;11908;50.806;4.424;2023-02-23T06:38:13;8.90;99.90
23471;DHT22;11908;50.806;4.424;2023-02-23T06:40:39;9.00;99.90
23471;DHT22;11908;50.806;4.424;2023-02-23T06:43:05;8.90;99.90
23471;DHT22;11908;50.806;4.424;2023-02-23T06:45:31;9.00;99.90
23471;DHT22;11908;50.806;4.424;2023-02-23T06:47:58;9.10;99.90
23471;DHT22;11908;50.806;4.424;2023-02-23T06:50:24;9.00;99.90
23471;DHT22;11908;50.806;4.424;2023-02-23T06:52:49;9.10;99.90
23471;DHT22;11908;50.806;4.424;2023-02-23T06:55:16;9.10;99.90
23471;DHT22;11908;50.806;4.424;2023-02-23T06:57:41;9.20;99.90
23471;DHT22;11908;50.806;4.424;2023-02-23T07:00:12;9.20;99.90
23471;DHT22;11908;50.806;4.424;2023-02-23T07:02:40;9.10;99.90
23471;DHT22;11908;50.806;4.424;2023-02-23T07:05:06;9.20;99.90
23471;DHT22;11908;50.806;4.424;2023-02-23T07:07:32;9.20;99.90
23471;DHT22;11908;50.806;4.424;2023-02-23T07:09:57;9.30;99.90
23471;DHT22;11908;50.806;4.424;2023-02-23T07:12:23;9.40;99.90
23471;DHT22;11908;50.806;4.424;2023-02-23T07:14:49;9.40;99.90
23471;DHT22;11908;50.806;4.424;2023-02-23T07:17:14;9.50;99.90
23471;DHT22;11908;50.806;4.424;2023-02-23T07:19:42;9.60;99.90
23471;DHT22;11908;50.806;4.424;2023-02-23T07:22:08;9.70;99.90
23471;DHT22;11908;50.806;4.424;2023-02-23T07:24:33;9.70;99.90
23471;DHT22;11908;50.806;4.424;2023-02-23T07:26:59;9.80;99.90
23471;DHT22;11908;50.806;4.424;2023-02-23T07:29:25;9.80;99.90
23471;DHT22;11908;50.806;4.424;2023-02-23T07:31:52;9.80;99.90
23471;DHT22;11908;50.806;4.424;2023-02-23T07:34:18;9.80;99.90
23471;DHT22;11908;50.806;4.424;2023-02-23T07:36:43;9.80;99.90
23471;DHT22;11908;50.806;4.424;2023-02-23T07:39:09;9.70;99.90
23471;DHT22;11908;50.806;4.424;2023-02-23T07:41:35;9.80;99.90
23471;DHT22;11908;50.806;4.424;2023-02-23T07:44:01;9.70;99.90
23471;DHT22;11908;50.806;4.424;2023-02-23T07:46:26;9.60;99.90
23471;DHT22;11908;50.806;4.424;2023-02-23T07:48:52;9.60;99.90
23471;DHT22;11908;50.806;4.424;2023-02-23T07:51:18;9.60;99.90
23471;DHT22;11908;50.806;4.424;2023-02-23T07:53:44;9.60;99.90
23471;DHT22;11908;50.806;4.424;2023-02-23T07:56:11;9.60;99.90
23471;DHT22;11908;50.806;4.424;2023-02-23T07:58:41;9.60;99.90
23471;DHT22;11908;50.806;4.424;2023-02-23T08:01:08;9.60;99.90
23471;DHT22;11908;50.806;4.424;2023-02-23T08:03:34;9.60;99.90
23471;DHT22;11908;50.806;4.424;2023-02-23T08:05:59;9.70;99.90
23471;DHT22;11908;50.806;4.424;2023-02-23T08:08:26;9.70;99.90
23471;DHT22;11908;50.806;4.424;2023-02-23T08:10:59;9.80;99.90
23471;DHT22;11908;50.806;4.424;2023-02-23T08:13:25;9.90;99.90
23471;DHT22;11908;50.806;4.424;2023-02-23T08:15:50;9.90;99.90
23471;DHT22;11908;50.806;4.424;2023-02-23T08:18:16;10.00;99.90
23471;DHT22;11908;50.806;4.424;2023-02-23T08:20:42;10.00;99.90
23471;DHT22;11908;50.806;4.424;2023-02-23T08:23:07;10.00;99.90
23471;DHT22;11908;50.806;4.424;2023-02-23T08:25:34;10.00;99.90
23471;DHT22;11908;50.806;4.424;2023-02-23T08:28:00;9.90;99.90
23471;DHT22;11908;50.806;4.424;2023-02-23T08:30:29;10.00;99.90
23471;DHT22;11908;50.806;4.424;2023-02-23T08:32:55;9.90;99.90
23471;DHT22;11908;50.806;4.424;2023-02-23T08:35:21;9.90;99.90
23471;DHT22;11908;50.806;4.424;2023-02-23T08:37:47;9.90;99.90
23471;DHT22;11908;50.806;4.424;2023-02-23T08:40:13;10.00;99.90
23471;DHT22;11908;50.806;4.424;2023-02-23T08:42:41;10.00;99.90
23471;DHT22;11908;50.806;4.424;2023-02-23T08:45:07;9.80;99.90
23471;DHT22;11908;50.806;4.424;2023-02-23T08:47:33;9.90;99.90
23471;DHT22;11908;50.806;4.424;2023-02-23T08:50:00;10.00;99.90
23471;DHT22;11908;50.806;4.424;2023-02-23T08:52:26;10.00;99.90
23471;DHT22;11908;50.806;4.424;2023-02-23T08:54:51;9.90;99.90
23471;DHT22;11908;50.806;4.424;2023-02-23T08:57:17;10.00;99.90
23471;DHT22;11908;50.806;4.424;2023-02-23T08:59:43;10.10;99.90
23471;DHT22;11908;50.806;4.424;2023-02-23T09:02:12;10.10;99.90
23471;DHT22;11908;50.806;4.424;2023-02-23T09:04:38;10.10;99.90
23471;DHT22;11908;50.806;4.424;2023-02-23T09:07:07;10.30;99.90
23471;DHT22;11908;50.806;4.424;2023-02-23T09:09:34;10.40;99.90
23471;DHT22;11908;50.806;4.424;2023-02-23T09:11:59;10.30;99.90
23471;DHT22;11908;50.806;4.424;2023-02-23T09:14:26;10.30;99.90
23471;DHT22;11908;50.806;4.424;2023-02-23T09:16:52;10.30;99.90
23471;DHT22;11908;50.806;4.424;2023-02-23T09:19:18;10.30;99.90
23471;DHT22;11908;50.806;4.424;2023-02-23T09:21:44;10.40;99.90
23471;DHT22;11908;50.806;4.424;2023-02-23T09:24:10;10.40;99.90
23471;DHT22;11908;50.806;4.424;2023-02-23T09:26:36;10.50;99.90
23471;DHT22;11908;50.806;4.424;2023-02-23T09:29:05;10.40;99.90
23471;DHT22;11908;50.806;4.424;2023-02-23T09:31:31;10.40;99.90
23471;DHT22;11908;50.806;4.424;2023-02-23T09:33:57;10.30;99.90
23471;DHT22;11908;50.806;4.424;2023-02-23T09:36:25;10.40;99.90
23471;DHT22;11908;50.806;4.424;2023-02-23T09:38:53;10.50;99.90
23471;DHT22;11908;50.806;4.424;2023-02-23T09:41:29;10.60;99.90
23471;DHT22;11908;50.806;4.424;2023-02-23T09:44:25;10.80;99.90
23471;DHT22;11908;50.806;4.424;2023-02-23T09:49:28;10.70;99.90
23471;DHT22;11908;50.806;4.424;2023-02-23T09:51:57;10.90;99.90
23471;DHT22;11908;50.806;4.424;2023-02-23T09:54:28;10.90;99.90
23471;DHT22;11908;50.806;4.424;2023-02-23T09:56:55;11.10;99.90
23471;DHT22;11908;50.806;4.424;2023-02-23T09:59:23;10.90;99.90
23471;DHT22;11908;50.806;4.424;2023-02-23T10:04:38;11.10;99.90
23471;DHT22;11908;50.806;4.424;2023-02-23T10:07:25;11.00;99.90
23471;DHT22;11908;50.806;4.424;2023-02-23T10:13:02;11.00;99.90
23471;DHT22;11908;50.806;4.424;2023-02-23T10:15:51;10.90;99.90
23471;DHT22;11908;50.806;4.424;2023-02-23T10:23:57;10.60;99.90
23471;DHT22;11908;50.806;4.424;2023-02-23T10:26:26;10.40;99.90
23471;DHT22;11908;50.806;4.424;2023-02-23T10:28:54;10.40;99.90
23471;DHT22;11908;50.806;4.424;2023-02-23T10:31:33;10.60;99.90
23471;DHT22;11908;50.806;4.424;2023-02-23T10:34:13;10.70;99.90
23471;DHT22;11908;50.806;4.424;2023-02-23T10:37:05;10.90;99.90
23471;DHT22;11908;50.806;4.424;2023-02-23T10:39:34;11.20;99.90
23471;DHT22;11908;50.806;4.424;2023-02-23T10:42:05;11.30;99.90
23471;DHT22;11908;50.806;4.424;2023-02-23T10:44:32;11.40;99.90
23471;DHT22;11908;50.806;4.424;2023-02-23T10:47:23;11.80;99.90
23471;DHT22;11908;50.806;4.424;2023-02-23T10:49:52;11.70;99.90
23471;DHT22;11908;50.806;4.424;2023-02-23T10:52:21;11.70;99.90
23471;DHT22;11908;50.806;4.424;2023-02-23T10:54:50;11.50;99.90
23471;DHT22;11908;50.806;4.424;2023-02-23T10:57:28;11.50;99.90
23471;DHT22;11908;50.806;4.424;2023-02-23T11:02:26;11.10;99.90
23471;DHT22;11908;50.806;4.424;2023-02-23T11:04:56;11.20;99.90
23471;DHT22;11908;50.806;4.424;2023-02-23T11:07:29;11.50;99.90
23471;DHT22;11908;50.806;4.424;2023-02-23T11:10:26;11.90;99.90
23471;DHT22;11908;50.806;4.424;2023-02-23T11:12:51;12.10;99.90
23471;DHT22;11908;50.806;4.424;2023-02-23T11:17:57;12.60;99.90
23471;DHT22;11908;50.806;4.424;2023-02-23T11:20:32;12.80;99.90
23471;DHT22;11908;50.806;4.424;2023-02-23T11:23:11;12.70;99.90
23471;DHT22;11908;50.806;4.424;2023-02-23T11:25:42;12.70;99.90
23471;DHT22;11908;50.806;4.424;2023-02-23T11:28:21;12.70;99.90
23471;DHT22;11908;50.806;4.424;2023-02-23T11:30:48;12.70;99.90
23471;DHT22;11908;50.806;4.424;2023-02-23T11:33:18;12.40;99.90
23471;DHT22;11908;50.806;4.424;2023-02-23T11:35:44;12.00;99.90
23471;DHT22;11908;50.806;4.424;2023-02-23T11:38:28;11.60;99.90
23471;DHT22;11908;50.806;4.424;2023-02-23T11:40:59;11.50;99.90
23471;DHT22;11908;50.806;4.424;2023-02-23T11:43:25;11.40;99.90
23471;DHT22;11908;50.806;4.424;2023-02-23T11:45:56;11.50;99.90
23471;DHT22;11908;50.806;4.424;2023-02-23T11:48:47;11.60;99.90
23471;DHT22;11908;50.806;4.424;2023-02-23T11:51:25;11.60;99.90
23471;DHT22;11908;50.806;4.424;2023-02-23T11:53:53;11.70;99.90
23471;DHT22;11908;50.806;4.424;2023-02-23T11:56:22;11.70;99.90
23471;DHT22;11908;50.806;4.424;2023-02-23T11:59:05;11.50;99.90
23471;DHT22;11908;50.806;4.424;2023-02-23T12:01:47;11.30;99.90
23471;DHT22;11908;50.806;4.424;2023-02-23T12:04:33;11.10;99.90
23471;DHT22;11908;50.806;4.424;2023-02-23T12:07:24;11.00;99.90
23471;DHT22;11908;50.806;4.424;2023-02-23T12:10:10;11.00;99.90
23471;DHT22;11908;50.806;4.424;2023-02-23T12:12:51;11.10;99.90
23471;DHT22;11908;50.806;4.424;2023-02-23T12:15:48;11.20;99.90
23471;DHT22;11908;50.806;4.424;2023-02-23T12:19:19;11.20;99.90
23471;DHT22;11908;50.806;4.424;2023-02-23T12:24:40;11.30;99.90
23471;DHT22;11908;50.806;4.424;2023-02-23T12:27:14;11.50;99.90
23471;DHT22;11908;50.806;4.424;2023-02-23T12:29:58;11.40;99.90
23471;DHT22;11908;50.806;4.424;2023-02-23T12:32:33;11.40;99.90
23471;DHT22;11908;50.806;4.424;2023-02-23T12:35:05;11.30;99.90
23471;DHT22;11908;50.806;4.424;2023-02-23T12:37:42;11.40;99.90
23471;DHT22;11908;50.806;4.424;2023-02-23T12:42:51;11.30;99.90
23471;DHT22;11908;50.806;4.424;2023-02-23T12:45:22;11.40;99.90
23471;DHT22;11908;50.806;4.424;2023-02-23T12:48:12;11.30;99.90
23471;DHT22;11908;50.806;4.424;2023-02-23T12:50:59;11.40;99.90
23471;DHT22;11908;50.806;4.424;2023-02-23T13:07:57;11.70;99.90
23471;DHT22;11908;50.806;4.424;2023-02-23T13:10:40;11.80;99.90
23471;DHT22;11908;50.806;4.424;2023-02-23T13:13:21;11.60;99.90
23471;DHT22;11908;50.806;4.424;2023-02-23T13:15:58;11.50;99.90
23471;DHT22;11908;50.806;4.424;2023-02-23T13:21:36;11.70;99.90
23471;DHT22;11908;50.806;4.424;2023-02-23T13:24:15;11.70;99.90
23471;DHT22;11908;50.806;4.424;2023-02-23T13:29:38;11.70;99.90
23471;DHT22;11908;50.806;4.424;2023-02-23T13:32:17;11.90;99.90
23471;DHT22;11908;50.806;4.424;2023-02-23T13:34:56;12.00;99.90
23471;DHT22;11908;50.806;4.424;2023-02-23T13:40:43;12.10;99.90
23471;DHT22;11908;50.806;4.424;2023-02-23T13:49:21;11.80;99.90
23471;DHT22;11908;50.806;4.424;2023-02-23T13:51:59;11.90;99.90
23471;DHT22;11908;50.806;4.424;2023-02-23T13:54:34;11.90;99.90
23471;DHT22;11908;50.806;4.424;2023-02-23T13:57:02;11.70;99.90
23471;DHT22;11908;50.806;4.424;2023-02-23T13:59:50;11.70;99.90
23471;DHT22;11908;50.806;4.424;2023-02-23T14:07:48;11.40;99.90
23471;DHT22;11908;50.806;4.424;2023-02-23T14:10:27;11.40;99.90
23471;DHT22;11908;50.806;4.424;2023-02-23T14:15:44;11.20;99.90
23471;DHT22;11908;50.806;4.424;2023-02-23T14:29:24;11.30;99.90
23471;DHT22;11908;50.806;4.424;2023-02-23T14:32:16;11.20;99.90
23471;DHT22;11908;50.806;4.424;2023-02-23T14:37:35;11.20;99.90
23471;DHT22;11908;50.806;4.424;2023-02-23T14:40:11;11.20;99.90
23471;DHT22;11908;50.806;4.424;2023-02-23T14:42:38;11.20;99.90
23471;DHT22;11908;50.806;4.424;2023-02-23T14:45:23;11.00;99.90
23471;DHT22;11908;50.806;4.424;2023-02-23T14:47:56;11.00;99.90
23471;DHT22;11908;50.806;4.424;2023-02-23T14:50:32;11.00;99.90
23471;DHT22;11908;50.806;4.424;2023-02-23T14:52:59;11.20;99.90
23471;DHT22;11908;50.806;4.424;2023-02-23T14:55:28;11.40;99.90
23471;DHT22;11908;50.806;4.424;2023-02-23T14:57:54;11.40;99.90
23471;DHT22;11908;50.806;4.424;2023-02-23T15:00:24;11.60;99.90
23471;DHT22;11908;50.806;4.424;2023-02-23T15:02:57;11.60;99.90
23471;DHT22;11908;50.806;4.424;2023-02-23T15:05:27;11.70;99.90
23471;DHT22;11908;50.806;4.424;2023-02-23T15:07:57;11.60;99.90
23471;DHT22;11908;50.806;4.424;2023-02-23T15:10:30;11.60;99.90
23471;DHT22;11908;50.806;4.424;2023-02-23T15:12:56;11.70;99.90
23471;DHT22;11908;50.806;4.424;2023-02-23T15:15:24;11.60;99.90
23471;DHT22;11908;50.806;4.424;2023-02-23T15:17:53;11.70;99.90
23471;DHT22;11908;50.806;4.424;2023-02-23T15:20:22;11.70;99.90
23471;DHT22;11908;50.806;4.424;2023-02-23T15:22:54;11.70;99.90
23471;DHT22;11908;50.806;4.424;2023-02-23T15:25:36;11.70;99.90
23471;DHT22;11908;50.806;4.424;2023-02-23T15:28:33;11.50;99.90
23471;DHT22;11908;50.806;4.424;2023-02-23T15:31:00;11.50;99.90
23471;DHT22;11908;50.806;4.424;2023-02-23T15:33:26;11.60;99.90
23471;DHT22;11908;50.806;4.424;2023-02-23T15:38:33;11.40;99.90
23471;DHT22;11908;50.806;4.424;2023-02-23T15:41:03;11.60;99.90
23471;DHT22;11908;50.806;4.424;2023-02-23T15:43:31;11.80;99.90
23471;DHT22;11908;50.806;4.424;2023-02-23T15:46:00;11.70;99.90
23471;DHT22;11908;50.806;4.424;2023-02-23T15:48:41;11.70;99.90
23471;DHT22;11908;50.806;4.424;2023-02-23T15:51:33;11.80;99.90
23471;DHT22;11908;50.806;4.424;2023-02-23T15:54:02;11.80;99.90
23471;DHT22;11908;50.806;4.424;2023-02-23T15:56:34;11.80;99.90
23471;DHT22;11908;50.806;4.424;2023-02-23T15:59:11;11.50;99.90
23471;DHT22;11908;50.806;4.424;2023-02-23T16:01:42;11.30;99.90
23471;DHT22;11908;50.806;4.424;2023-02-23T16:09:32;11.20;99.90
23471;DHT22;11908;50.806;4.424;2023-02-23T16:19:43;11.10;99.90
23471;DHT22;11908;50.806;4.424;2023-02-23T16:22:21;11.10;99.90
23471;DHT22;11908;50.806;4.424;2023-02-23T16:24:56;11.00;99.90
23471;DHT22;11908;50.806;4.424;2023-02-23T16:27:23;11.00;99.90
23471;DHT22;11908;50.806;4.424;2023-02-23T16:29:56;10.90;99.90
23471;DHT22;11908;50.806;4.424;2023-02-23T16:32:35;10.90;99.90
23471;DHT22;11908;50.806;4.424;2023-02-23T16:35:09;10.90;99.90
23471;DHT22;11908;50.806;4.424;2023-02-23T16:38:00;10.80;99.90
23471;DHT22;11908;50.806;4.424;2023-02-23T16:40:26;10.80;99.90
23471;DHT22;11908;50.806;4.424;2023-02-23T16:42:52;10.80;99.90
23471;DHT22;11908;50.806;4.424;2023-02-23T16:45:23;10.70;99.90
23471;DHT22;11908;50.806;4.424;2023-02-23T16:47:51;10.70;99.90
23471;DHT22;11908;50.806;4.424;2023-02-23T16:50:22;10.50;99.90
23471;DHT22;11908;50.806;4.424;2023-02-23T16:52:51;10.50;99.90
23471;DHT22;11908;50.806;4.424;2023-02-23T16:55:23;10.50;99.90
23471;DHT22;11908;50.806;4.424;2023-02-23T16:58:00;10.30;99.90
23471;DHT22;11908;50.806;4.424;2023-02-23T17:00:29;10.50;99.90
23471;DHT22;11908;50.806;4.424;2023-02-23T17:02:55;10.50;99.90
23471;DHT22;11908;50.806;4.424;2023-02-23T17:05:22;10.40;99.90
23471;DHT22;11908;50.806;4.424;2023-02-23T17:07:49;10.30;99.90
23471;DHT22;11908;50.806;4.424;2023-02-23T17:10:27;10.30;99.90
23471;DHT22;11908;50.806;4.424;2023-02-23T17:12:56;10.30;99.90
23471;DHT22;11908;50.806;4.424;2023-02-23T17:15:24;10.40;99.90
23471;DHT22;11908;50.806;4.424;2023-02-23T17:17:51;10.40;99.90
23471;DHT22;11908;50.806;4.424;2023-02-23T17:20:23;10.30;99.90
23471;DHT22;11908;50.806;4.424;2023-02-23T17:22:52;10.40;99.90
23471;DHT22;11908;50.806;4.424;2023-02-23T17:25:19;10.40;99.90
23471;DHT22;11908;50.806;4.424;2023-02-23T17:27:45;10.30;99.90
23471;DHT22;11908;50.806;4.424;2023-02-23T17:30:12;10.30;99.90
23471;DHT22;11908;50.806;4.424;2023-02-23T17:32:38;10.30;99.90
23471;DHT22;11908;50.806;4.424;2023-02-23T17:35:03;10.30;99.90
23471;DHT22;11908;50.806;4.424;2023-02-23T17:37:29;10.30;99.90
23471;DHT22;11908;50.806;4.424;2023-02-23T17:39:55;10.20;99.90
23471;DHT22;11908;50.806;4.424;2023-02-23T17:42:21;10.10;99.90
23471;DHT22;11908;50.806;4.424;2023-02-23T17:44:49;10.10;99.90
23471;DHT22;11908;50.806;4.424;2023-02-23T17:47:14;10.00;99.90
23471;DHT22;11908;50.806;4.424;2023-02-23T17:49:41;10.00;99.90
23471;DHT22;11908;50.806;4.424;2023-02-23T17:52:06;10.00;99.90
23471;DHT22;11908;50.806;4.424;2023-02-23T17:54:32;10.10;99.90
23471;DHT22;11908;50.806;4.424;2023-02-23T17:56:57;10.00;99.90
23471;DHT22;11908;50.806;4.424;2023-02-23T17:59:23;10.00;99.90
23471;DHT22;11908;50.806;4.424;2023-02-23T18:01:49;10.00;99.90
23471;DHT22;11908;50.806;4.424;2023-02-23T18:04:14;10.10;99.90
23471;DHT22;11908;50.806;4.424;2023-02-23T18:06:40;10.00;99.90
23471;DHT22;11908;50.806;4.424;2023-02-23T18:09:06;9.90;99.90
23471;DHT22;11908;50.806;4.424;2023-02-23T18:11:33;9.90;99.90
23471;DHT22;11908;50.806;4.424;2023-02-23T18:14:02;9.80;99.90
23471;DHT22;11908;50.806;4.424;2023-02-23T18:16:28;9.90;99.90